createdAt,value
2018-02-04T00:01:06.219Z,10.05
2018-02-04T00:03:32.874Z,10.00
2018-02-04T00:05:59.602Z,10.10
2018-02-04T00:08:26.320Z,10.00
2018-02-04T00:10:53.035Z,8.07
2018-02-04T00:13:19.707Z,9.25
2018-02-04T00:15:46.382Z,9.75
2018-02-04T00:18:13.074Z,10.50
2018-02-04T00:20:39.749Z,8.50
2018-02-04T00:23:06.474Z,9.75
2018-02-04T00:25:33.184Z,10.20
2018-02-04T00:27:59.877Z,10.18
2018-02-04T00:30:26.563Z,9.13
2018-02-04T00:32:53.225Z,9.20
2018-02-04T00:35:19.919Z,10.60
2018-02-04T00:37:46.716Z,9.73
2018-02-04T00:40:13.415Z,10.63
2018-02-04T00:42:40.129Z,12.60
2018-02-04T00:45:06.843Z,10.85
2018-02-04T00:47:33.550Z,10.93
2018-02-04T00:50:00.288Z,12.18
2018-02-04T00:52:27.040Z,11.65
2018-02-04T00:54:53.755Z,10.93
2018-02-04T00:57:20.488Z,13.05
2018-02-04T00:59:47.254Z,11.73
2018-02-04T01:02:13.994Z,14.10
2018-02-04T01:04:40.669Z,15.70
2018-02-04T01:07:07.433Z,14.07
2018-02-04T01:09:34.154Z,11.70
2018-02-04T01:12:00.877Z,15.18
2018-02-04T01:14:27.575Z,15.23
2018-02-04T01:16:54.327Z,17.30
2018-02-04T01:19:20.987Z,16.83
2018-02-04T01:21:47.768Z,16.25
2018-02-04T01:24:14.486Z,15.77
2018-02-04T01:26:41.185Z,15.88
2018-02-04T01:29:07.838Z,16.15
2018-02-04T01:31:34.517Z,16.17
2018-02-04T01:34:01.242Z,16.80
2018-02-04T01:36:27.883Z,18.00
2018-02-04T01:38:54.515Z,16.45
2018-02-04T01:41:21.162Z,18.60
2018-02-04T01:43:47.864Z,17.77
2018-02-04T01:46:14.531Z,18.92
2018-02-04T01:48:41.180Z,17.02
2018-02-04T01:51:07.814Z,16.45
2018-02-04T01:53:34.462Z,18.37
2018-02-04T01:56:01.092Z,14.40
2018-02-04T01:58:27.732Z,17.08
2018-02-04T02:00:54.367Z,18.37
2018-02-04T02:03:21.006Z,17.40
2018-02-04T02:05:47.646Z,13.27
2018-02-04T02:08:14.286Z,16.12
2018-02-04T02:10:40.919Z,17.50
2018-02-04T02:13:07.594Z,18.77
2018-02-04T02:15:34.230Z,15.30
2018-02-04T02:18:00.902Z,16.05
2018-02-04T02:20:27.521Z,17.60
2018-02-04T02:22:54.170Z,18.40
2018-02-04T02:25:20.808Z,16.20
2018-02-04T02:27:47.463Z,15.10
2018-02-04T02:30:14.090Z,20.10
2018-02-04T02:32:40.743Z,15.75
2018-02-04T02:35:07.369Z,18.42
2018-02-04T02:37:34.003Z,20.60
2018-02-04T02:40:00.637Z,22.37
2018-02-04T02:42:27.271Z,18.58
2018-02-04T02:44:53.914Z,22.20
2018-02-04T02:47:20.538Z,21.23
2018-02-04T02:49:47.175Z,21.48
2018-02-04T02:52:13.803Z,18.00
2018-02-04T02:54:40.431Z,21.92
2018-02-04T02:57:07.067Z,21.20
2018-02-04T02:59:33.698Z,19.08
2018-02-04T03:02:00.327Z,21.98
2018-02-04T03:04:26.962Z,21.05
2018-02-04T03:06:53.595Z,18.37
2018-02-04T03:09:20.218Z,19.35
2018-02-04T03:11:46.846Z,21.12
2018-02-04T03:14:13.473Z,22.73
2018-02-04T03:16:40.102Z,20.20
2018-02-04T03:19:06.742Z,17.42
2018-02-04T03:21:33.376Z,22.98
2018-02-04T03:24:00.039Z,22.40
2018-02-04T03:26:26.665Z,22.05
2018-02-04T03:28:53.296Z,22.60
2018-02-04T03:31:19.936Z,20.62
2018-02-04T03:33:46.572Z,19.10
2018-02-04T03:36:13.210Z,19.37
2018-02-04T03:38:39.845Z,20.88
2018-02-04T03:41:06.488Z,20.25
2018-02-04T03:43:33.122Z,20.40
2018-02-04T03:45:59.760Z,23.00
2018-02-04T03:48:26.397Z,20.12
2018-02-04T03:50:53.932Z,19.27
2018-02-04T03:53:20.570Z,23.20
2018-02-04T03:55:47.203Z,17.73
2018-02-04T03:58:13.838Z,18.67
2018-02-04T04:00:40.467Z,21.92
2018-02-04T04:03:07.129Z,23.95
2018-02-04T04:05:33.755Z,20.17
2018-02-04T04:08:00.380Z,18.08
2018-02-04T04:10:27.534Z,20.88
2018-02-04T04:12:54.168Z,19.65
2018-02-04T04:15:20.849Z,20.00
2018-02-04T04:17:47.479Z,21.92
2018-02-04T04:20:14.107Z,21.45
2018-02-04T04:22:40.828Z,21.08
2018-02-04T04:25:07.458Z,23.30
2018-02-04T04:27:34.098Z,20.62
2018-02-04T04:30:00.745Z,19.27
2018-02-04T04:32:27.400Z,21.02
2018-02-04T04:34:54.032Z,19.90
2018-02-04T04:37:20.679Z,21.58
2018-02-04T04:39:47.307Z,22.77
2018-02-04T04:42:13.953Z,20.70
2018-02-04T04:44:40.591Z,20.23
2018-02-04T04:47:07.245Z,19.12
2018-02-04T04:49:33.879Z,20.20
2018-02-04T04:52:00.522Z,21.27
2018-02-04T04:54:27.147Z,21.30
2018-02-04T04:56:53.804Z,22.35
2018-02-04T04:59:20.430Z,20.00
2018-02-04T05:01:47.074Z,20.75
2018-02-04T05:04:13.703Z,21.50
2018-02-04T05:06:40.358Z,19.00
2018-02-04T05:09:06.987Z,19.25
2018-02-04T05:11:33.610Z,19.52
2018-02-04T05:14:00.241Z,21.40
2018-02-04T05:16:26.862Z,18.45
2018-02-04T05:18:53.510Z,21.45
2018-02-04T05:21:20.148Z,22.52
2018-02-04T05:23:46.793Z,23.92
2018-02-04T05:26:13.429Z,18.85
2018-02-04T05:28:40.093Z,22.55
2018-02-04T05:31:06.714Z,20.98
2018-02-04T05:33:33.368Z,22.20
2018-02-04T05:35:59.991Z,19.12
2018-02-04T05:38:26.638Z,19.98
2018-02-04T05:40:53.281Z,18.23
2018-02-04T05:43:19.919Z,25.52
2018-02-04T05:45:46.552Z,23.62
2018-02-04T05:48:13.203Z,19.65
2018-02-04T05:50:39.833Z,22.75
2018-02-04T05:53:06.471Z,21.50
2018-02-04T05:55:33.103Z,22.62
2018-02-04T05:57:59.743Z,20.20
2018-02-04T06:00:26.388Z,24.08
2018-02-04T06:02:53.073Z,19.87
2018-02-04T06:05:19.710Z,22.42
2018-02-04T06:07:46.337Z,26.02
2018-02-04T06:10:12.978Z,21.23
2018-02-04T06:12:39.615Z,21.23
2018-02-04T06:15:06.243Z,21.10
2018-02-04T06:17:32.875Z,22.80
2018-02-04T06:19:59.511Z,22.85
2018-02-04T06:22:26.155Z,25.40
2018-02-04T06:24:52.794Z,26.08
2018-02-04T06:27:19.439Z,23.48
2018-02-04T06:29:46.083Z,21.80
2018-02-04T06:32:12.719Z,22.40
2018-02-04T06:34:39.372Z,20.92
2018-02-04T06:37:06.011Z,22.02
2018-02-04T06:39:32.667Z,22.00
2018-02-04T06:41:59.297Z,22.85
2018-02-04T06:44:25.948Z,24.55
2018-02-04T06:46:52.588Z,24.40
2018-02-04T06:49:19.291Z,24.05
2018-02-04T06:51:45.926Z,23.23
2018-02-04T06:54:12.582Z,26.67
2018-02-04T06:56:39.219Z,23.30
2018-02-04T06:59:05.883Z,26.48
2018-02-04T07:01:32.523Z,22.20
2018-02-04T07:03:59.176Z,20.65
2018-02-04T07:06:25.802Z,22.23
2018-02-04T07:08:52.452Z,23.08
2018-02-04T07:11:19.074Z,22.35
2018-02-04T07:13:45.727Z,23.42
2018-02-04T07:16:12.370Z,23.90
2018-02-04T07:18:39.003Z,23.05
2018-02-04T07:21:05.648Z,30.92
2018-02-04T07:23:32.340Z,22.73
2018-02-04T07:25:59.055Z,25.00
2018-02-04T07:28:25.698Z,23.80
2018-02-04T07:30:52.335Z,25.25
2018-02-04T07:33:18.968Z,32.90
2018-02-04T07:35:45.598Z,29.35
2018-02-04T07:38:12.234Z,28.87
2018-02-04T07:40:38.874Z,27.33
2018-02-04T07:43:05.515Z,33.00
2018-02-04T07:45:32.184Z,24.87
2018-02-04T07:47:58.829Z,29.90
2018-02-04T07:50:25.505Z,25.60
2018-02-04T07:52:52.142Z,27.58
2018-02-04T07:55:18.786Z,27.00
2018-02-04T07:57:45.420Z,25.75
2018-02-04T08:00:12.058Z,25.30
2018-02-04T08:02:38.695Z,26.75
2018-02-04T08:05:05.435Z,22.60
2018-02-04T08:07:32.100Z,23.83
2018-02-04T08:09:58.767Z,20.45
2018-02-04T08:12:25.410Z,24.85
2018-02-04T08:14:52.067Z,19.08
2018-02-04T08:17:18.700Z,19.92
2018-02-04T08:19:45.403Z,23.17
2018-02-04T08:22:12.067Z,23.67
2018-02-04T08:24:38.775Z,23.15
2018-02-04T08:27:05.520Z,19.50
2018-02-04T08:29:32.149Z,21.37
2018-02-04T08:31:58.802Z,19.87
2018-02-04T08:34:25.443Z,18.85
2018-02-04T08:36:52.084Z,23.02
2018-02-04T08:39:18.803Z,20.17
2018-02-04T08:41:45.435Z,22.30
2018-02-04T08:44:12.076Z,23.00
2018-02-04T08:46:38.728Z,15.98
2018-02-04T08:49:05.363Z,15.95
2018-02-04T08:51:32.007Z,17.23
2018-02-04T08:53:58.638Z,17.33
2018-02-04T08:56:25.381Z,17.27
2018-02-04T08:58:52.034Z,17.65
2018-02-04T09:01:18.675Z,19.02
2018-02-04T09:03:45.318Z,17.70
2018-02-04T09:06:11.966Z,16.90
2018-02-04T09:08:38.607Z,15.77
2018-02-04T09:11:05.257Z,18.12
2018-02-04T09:13:31.913Z,16.67
2018-02-04T09:15:58.566Z,17.40
2018-02-04T09:18:25.207Z,17.58
2018-02-04T09:20:51.863Z,17.90
2018-02-04T09:23:18.498Z,15.50
2018-02-04T09:25:45.147Z,16.77
2018-02-04T09:28:11.774Z,16.83
2018-02-04T09:30:38.415Z,18.17
2018-02-04T09:33:05.176Z,15.52
2018-02-04T09:35:31.815Z,19.08
2018-02-04T09:37:58.459Z,15.90
2018-02-04T09:40:25.083Z,19.27
2018-02-04T09:42:51.743Z,18.27
2018-02-04T09:45:18.379Z,19.58
2018-02-04T09:47:45.235Z,16.55
2018-02-04T09:50:12.382Z,18.67
2018-02-04T09:52:39.347Z,17.30
2018-02-04T09:55:06.006Z,14.77
2018-02-04T09:57:32.657Z,17.33
2018-02-04T09:59:59.331Z,18.12
2018-02-04T10:02:25.999Z,17.00
2018-02-04T10:04:52.678Z,19.45
2018-02-04T10:07:19.344Z,17.95
2018-02-04T10:09:46.139Z,14.85
2018-02-04T10:12:12.894Z,17.00
2018-02-04T10:14:39.700Z,18.95
2018-02-04T10:17:06.618Z,18.45
2018-02-04T10:19:33.474Z,18.48
2018-02-04T10:22:00.339Z,16.87
2018-02-04T10:24:27.001Z,19.25
2018-02-04T10:26:53.642Z,18.60
2018-02-04T10:29:20.278Z,19.37
2018-02-04T10:31:46.970Z,21.87
2018-02-04T10:34:13.694Z,20.65
2018-02-04T10:36:40.673Z,20.33
2018-02-04T10:39:07.322Z,20.80
2018-02-04T10:41:34.060Z,18.05
2018-02-04T10:44:00.686Z,20.25
2018-02-04T10:46:27.387Z,19.00
2018-02-04T10:48:54.100Z,17.45
2018-02-04T10:51:26.629Z,18.25
2018-02-04T10:53:53.288Z,19.60
2018-02-04T10:56:19.948Z,20.37
2018-02-04T10:58:46.598Z,18.65
2018-02-04T11:01:13.247Z,21.42
2018-02-04T11:03:39.954Z,19.95
2018-02-04T11:06:06.604Z,18.85
2018-02-04T11:08:33.273Z,17.50
2018-02-04T11:10:59.918Z,16.37
2018-02-04T11:13:26.686Z,15.55
2018-02-04T11:15:53.351Z,14.98
2018-02-04T11:18:20.017Z,15.55
2018-02-04T11:20:46.670Z,15.15
2018-02-04T11:23:13.407Z,12.95
2018-02-04T11:25:40.097Z,14.13
2018-02-04T11:28:06.863Z,12.68
2018-02-04T11:30:33.581Z,12.57
2018-02-04T11:33:00.314Z,14.82
2018-02-04T11:35:27.023Z,13.65
2018-02-04T11:37:53.676Z,15.23
2018-02-04T11:40:20.366Z,13.97
2018-02-04T11:42:47.066Z,13.87
2018-02-04T11:45:13.726Z,13.37
2018-02-04T11:47:40.439Z,13.50
2018-02-04T11:50:07.152Z,14.23
2018-02-04T11:52:33.869Z,15.23
2018-02-04T11:55:00.540Z,15.75
2018-02-04T11:57:27.221Z,16.67
2018-02-04T11:59:53.885Z,16.12
2018-02-04T12:02:20.576Z,14.90
2018-02-04T12:04:47.260Z,12.65
2018-02-04T12:07:13.998Z,14.82
2018-02-04T12:09:40.710Z,14.27
2018-02-04T12:12:07.413Z,13.10
2018-02-04T12:14:34.089Z,13.93
2018-02-04T12:17:00.830Z,14.02
2018-02-04T12:19:27.615Z,16.12
2018-02-04T12:21:54.415Z,14.43
2018-02-04T12:24:21.100Z,15.18
2018-02-04T12:26:47.782Z,16.92
2018-02-04T12:29:14.516Z,16.25
2018-02-04T12:31:41.262Z,15.52
2018-02-04T12:34:07.999Z,14.50
2018-02-04T12:36:34.733Z,16.62
2018-02-04T12:39:01.398Z,18.45
2018-02-04T12:41:28.095Z,15.40
2018-02-04T12:43:54.795Z,14.82
2018-02-04T12:46:21.503Z,16.83
2018-02-04T12:48:48.323Z,14.57
2018-02-04T12:51:14.975Z,15.35
2018-02-04T12:53:41.680Z,14.73
2018-02-04T12:56:08.456Z,15.23
2018-02-04T12:58:35.173Z,14.77
2018-02-04T13:01:01.936Z,14.82
2018-02-04T13:03:28.603Z,13.90
2018-02-04T13:05:55.340Z,15.73
2018-02-04T13:08:22.021Z,18.60
2018-02-04T13:10:48.731Z,12.52
2018-02-04T13:13:15.425Z,13.55
2018-02-04T13:15:42.192Z,16.50
2018-02-04T13:18:08.864Z,15.57
2018-02-04T13:20:35.577Z,15.40
2018-02-04T13:23:02.297Z,13.77
2018-02-04T13:25:29.005Z,15.32
2018-02-04T13:27:55.670Z,15.10
2018-02-04T13:30:22.393Z,13.98
2018-02-04T13:32:49.166Z,13.20
2018-02-04T13:35:15.839Z,14.70
2018-02-04T13:37:42.555Z,12.88
2018-02-04T13:40:09.278Z,15.60
2018-02-04T13:42:35.974Z,15.30
2018-02-04T13:45:02.649Z,14.35
2018-02-04T13:47:29.310Z,11.60
2018-02-04T13:49:56.010Z,12.15
2018-02-04T13:52:22.735Z,11.45
2018-02-04T13:54:49.441Z,11.18
2018-02-04T13:57:16.191Z,11.73
2018-02-04T13:59:42.910Z,11.20
2018-02-04T14:02:09.750Z,11.90
2018-02-04T14:04:37.006Z,12.70
2018-02-04T14:07:04.827Z,13.85
2018-02-04T14:09:31.626Z,13.98
2018-02-04T14:11:58.326Z,13.10
2018-02-04T14:14:25.703Z,16.08
2018-02-04T14:16:53.341Z,13.15
2018-02-04T14:19:19.974Z,10.75
2018-02-04T14:21:46.771Z,13.02
2018-02-04T14:24:13.442Z,12.90
2018-02-04T14:26:40.134Z,12.15
2018-02-04T14:29:06.862Z,13.75
2018-02-04T14:31:34.028Z,10.35
2018-02-04T14:34:01.173Z,12.63
2018-02-04T14:36:28.402Z,13.80
2018-02-04T14:38:55.303Z,12.45
2018-02-04T14:41:22.519Z,13.50
2018-02-04T14:43:50.074Z,12.98
2018-02-04T14:46:16.879Z,12.05
2018-02-04T14:48:43.889Z,11.23
2018-02-04T14:51:10.680Z,12.23
2018-02-04T14:53:38.101Z,14.02
2018-02-04T14:56:04.965Z,12.55
2018-02-04T14:58:31.838Z,14.07
2018-02-04T15:00:58.935Z,13.35
2018-02-04T15:03:25.671Z,15.18
2018-02-04T15:05:52.568Z,13.88
2018-02-04T15:08:19.722Z,11.90
2018-02-04T15:10:46.783Z,15.68
2018-02-04T15:13:13.705Z,14.18
2018-02-04T15:15:41.551Z,12.52
2018-02-04T15:18:08.760Z,13.77
2018-02-04T15:20:36.620Z,13.98
2018-02-04T15:23:03.450Z,14.75
2018-02-04T15:25:30.462Z,12.27
2018-02-04T15:27:57.252Z,14.15
2018-02-04T15:30:24.521Z,14.27
2018-02-04T15:32:51.530Z,13.15
2018-02-04T15:35:18.579Z,14.82
2018-02-04T15:37:45.464Z,15.98
2018-02-04T15:40:12.614Z,14.90
2018-02-04T15:42:39.412Z,13.10
2018-02-04T15:45:06.549Z,15.70
2018-02-04T15:47:33.344Z,12.77
2018-02-04T15:50:00.502Z,14.70
2018-02-04T15:52:28.127Z,15.05
2018-02-04T15:54:55.060Z,13.25
2018-02-04T15:57:21.850Z,13.80
2018-02-04T15:59:48.576Z,14.18
2018-02-04T16:02:15.266Z,15.82
2018-02-04T16:04:42.123Z,14.15
2018-02-04T16:07:09.365Z,14.25
2018-02-04T16:09:36.175Z,19.05
2018-02-04T16:12:03.080Z,14.38
2018-02-04T16:14:30.076Z,18.27
2018-02-04T16:16:57.216Z,16.25
2018-02-04T16:19:24.059Z,20.95
2018-02-04T16:21:50.795Z,19.42
2018-02-04T16:24:17.549Z,17.62
2018-02-04T16:26:44.700Z,17.73
2018-02-04T16:29:11.445Z,18.25
2018-02-04T16:31:38.284Z,21.15
2018-02-04T16:34:05.309Z,17.08
2018-02-04T16:36:32.121Z,17.40
2018-02-04T16:38:59.044Z,15.55
2018-02-04T16:41:25.733Z,17.33
2018-02-04T16:43:52.484Z,17.92
2018-02-04T16:46:19.220Z,21.02
2018-02-04T16:48:45.930Z,17.80
2018-02-04T16:51:12.601Z,20.35
2018-02-04T16:53:39.638Z,15.10
2018-02-04T16:56:06.367Z,15.82
2018-02-04T16:58:33.159Z,16.35
2018-02-04T17:00:59.940Z,17.92
2018-02-04T17:03:26.687Z,14.38
2018-02-04T17:05:53.362Z,14.23
2018-02-04T17:08:20.038Z,15.00
2018-02-04T17:10:46.895Z,15.05
2018-02-04T17:13:13.544Z,14.82
2018-02-04T17:15:40.211Z,13.80
2018-02-04T17:18:06.889Z,18.00
2018-02-04T17:20:33.604Z,15.25
2018-02-04T17:23:00.279Z,16.27
2018-02-04T17:25:27.095Z,14.73
2018-02-04T17:27:53.847Z,13.98
2018-02-04T17:30:20.559Z,11.93
2018-02-04T17:32:47.279Z,19.67
2018-02-04T17:35:13.964Z,16.35
2018-02-04T17:37:40.647Z,15.88
2018-02-04T17:40:07.387Z,17.30
2018-02-04T17:42:34.159Z,14.77
2018-02-04T17:45:00.823Z,15.43
2018-02-04T17:47:27.548Z,17.45
2018-02-04T17:49:54.197Z,15.10
2018-02-04T17:52:20.842Z,17.60
2018-02-04T17:54:47.536Z,17.45
2018-02-04T17:57:15.144Z,17.58
2018-02-04T17:59:41.773Z,24.02
2018-02-04T18:02:08.694Z,20.15
2018-02-04T18:04:35.438Z,25.92
2018-02-04T18:07:02.249Z,20.62
2018-02-04T18:09:28.985Z,20.15
2018-02-04T18:11:55.696Z,17.98
2018-02-04T18:14:22.731Z,16.90
2018-02-04T18:16:49.492Z,17.20
2018-02-04T18:19:16.217Z,15.07
2018-02-04T18:21:42.823Z,14.70
2018-02-04T18:24:09.483Z,17.48
2018-02-04T18:26:36.121Z,18.10
2018-02-04T18:29:02.759Z,16.37
2018-02-04T18:31:29.398Z,18.40
2018-02-04T18:33:56.045Z,19.80
2018-02-04T18:36:22.674Z,19.58
2018-02-04T18:38:49.318Z,17.10
2018-02-04T18:41:15.951Z,17.62
2018-02-04T18:43:42.584Z,17.77
2018-02-04T18:46:09.323Z,17.33
2018-02-04T18:48:36.066Z,18.67
2018-02-04T18:51:02.706Z,18.40
2018-02-04T18:53:29.340Z,20.00
2018-02-04T18:55:55.966Z,17.20
2018-02-04T18:58:22.616Z,16.58
2018-02-04T19:00:49.608Z,15.35
2018-02-04T19:03:16.436Z,18.62
2018-02-04T19:05:43.602Z,17.02
2018-02-04T19:08:10.646Z,15.57
2018-02-04T19:10:37.380Z,17.83
2018-02-04T19:13:04.392Z,17.17
2018-02-04T19:15:31.578Z,15.25
2018-02-04T19:17:58.601Z,14.35
2018-02-04T19:20:25.712Z,16.00
2018-02-04T19:22:52.959Z,17.75
2018-02-04T19:25:20.695Z,19.85
2018-02-04T19:27:47.713Z,18.15
2018-02-04T19:30:14.398Z,18.65
2018-02-04T19:32:41.392Z,17.80
2018-02-04T19:35:08.483Z,15.30
2018-02-04T19:37:35.525Z,14.90
2018-02-04T19:40:02.600Z,15.80
2018-02-04T19:42:29.326Z,17.60
2018-02-04T19:44:56.348Z,19.30
2018-02-04T19:47:23.437Z,18.00
2018-02-04T19:49:50.870Z,18.48
2018-02-04T19:52:19.749Z,18.85
2018-02-04T19:54:46.904Z,20.17
2018-02-04T19:57:14.527Z,16.67
2018-02-04T19:59:41.450Z,18.92
2018-02-04T20:02:09.398Z,16.70
2018-02-04T20:04:36.511Z,19.15
2018-02-04T20:07:03.741Z,16.33
2018-02-04T20:09:30.904Z,15.32
2018-02-04T20:11:58.099Z,15.93
2018-02-04T20:14:25.059Z,15.10
2018-02-04T20:16:51.969Z,18.50
2018-02-04T20:19:18.933Z,16.23
2018-02-04T20:21:45.934Z,22.50
2018-02-04T20:24:12.637Z,17.70
2018-02-04T20:26:39.627Z,17.45
2018-02-04T20:29:06.800Z,17.35
2018-02-04T20:31:33.934Z,20.00
2018-02-04T20:34:06.799Z,18.95
2018-02-04T20:36:33.906Z,17.58
2018-02-04T20:39:00.843Z,19.90
2018-02-04T20:41:27.971Z,21.15
2018-02-04T20:43:54.674Z,16.70
2018-02-04T20:46:21.544Z,20.20
2018-02-04T20:48:48.692Z,21.33
2018-02-04T20:51:15.788Z,20.10
2018-02-04T20:53:42.590Z,19.58
2018-02-04T20:56:09.591Z,22.83
2018-02-04T20:58:36.226Z,19.90
2018-02-04T21:01:02.863Z,23.38
2018-02-04T21:03:29.507Z,20.50
2018-02-04T21:05:56.139Z,23.08
2018-02-04T21:08:22.794Z,21.30
2018-02-04T21:10:50.807Z,21.48
2018-02-04T21:13:18.014Z,23.10
2018-02-04T21:15:45.240Z,23.25
2018-02-04T21:18:12.314Z,20.75
2018-02-04T21:20:39.247Z,21.20
2018-02-04T21:23:06.313Z,22.75
2018-02-04T21:25:33.231Z,23.55
2018-02-04T21:28:00.792Z,25.40
2018-02-04T21:30:27.503Z,23.58
2018-02-04T21:32:54.215Z,25.90
2018-02-04T21:35:20.933Z,20.92
2018-02-04T21:37:48.240Z,23.27
2018-02-04T21:40:14.946Z,25.20
2018-02-04T21:42:41.959Z,25.70
2018-02-04T21:45:08.705Z,31.15
2018-02-04T21:47:35.647Z,32.17
2018-02-04T21:50:02.359Z,29.35
2018-02-04T21:52:30.467Z,25.37
2018-02-04T21:54:57.217Z,29.37
2018-02-04T21:57:24.010Z,27.98
2018-02-04T21:59:50.873Z,27.58
2018-02-04T22:02:18.291Z,31.00
2018-02-04T22:04:45.016Z,36.63
2018-02-04T22:07:12.006Z,28.40
2018-02-04T22:09:39.190Z,32.55
2018-02-04T22:12:05.970Z,35.08
2018-02-04T22:14:32.773Z,34.28
2018-02-04T22:16:59.439Z,33.50
2018-02-04T22:19:26.196Z,33.10
2018-02-04T22:21:53.138Z,37.72
2018-02-04T22:24:19.846Z,34.25
2018-02-04T22:26:46.778Z,35.80
2018-02-04T22:29:13.489Z,34.35
2018-02-04T22:31:40.242Z,35.35
2018-02-04T22:34:06.887Z,33.35
2018-02-04T22:36:33.882Z,39.15
2018-02-04T22:39:00.680Z,32.45
2018-02-04T22:41:27.562Z,36.90
2018-02-04T22:43:54.390Z,38.50
2018-02-04T22:46:21.129Z,43.97
2018-02-04T22:48:47.917Z,33.60
2018-02-04T22:51:14.924Z,33.20
2018-02-04T22:53:41.678Z,39.25
2018-02-04T22:56:08.644Z,29.75
2018-02-04T23:01:28.507Z,32.92
2018-02-04T23:03:55.575Z,42.10
2018-02-04T23:06:22.408Z,36.60
2018-02-04T23:08:49.642Z,35.95
2018-02-04T23:11:16.738Z,30.77
2018-02-04T23:13:43.458Z,40.28
2018-02-04T23:16:10.915Z,43.20
2018-02-04T23:18:37.691Z,42.00
2018-02-04T23:21:04.604Z,44.42
2018-02-04T23:23:31.638Z,34.92
2018-02-04T23:25:59.479Z,30.17
2018-02-04T23:28:26.219Z,38.15
2018-02-04T23:30:53.287Z,42.00
2018-02-04T23:33:20.120Z,36.95
2018-02-04T23:35:48.193Z,36.58
2018-02-04T23:38:14.843Z,38.53
2018-02-04T23:40:41.766Z,39.92
2018-02-04T23:43:08.407Z,38.13
2018-02-04T23:45:35.046Z,42.28
2018-02-04T23:48:01.675Z,40.28
2018-02-04T23:50:28.316Z,39.08
2018-02-04T23:52:54.942Z,36.97
2018-02-04T23:55:21.570Z,36.25
2018-02-04T23:57:48.201Z,44.10
